sensor_id;sensor_type;location;lat;lon;timestamp;pressure;altitude;pressure_sealevel;temperature;humidity
7058;BME280;3570;43.080;25.628;2023-01-25T00:02:37;-19505.31;;;1.78;100.00
7058;BME280;3570;43.080;25.628;2023-01-25T00:05:21;-19504.88;;;1.77;100.00
7058;BME280;3570;43.080;25.628;2023-01-25T00:08:05;-19504.59;;;1.76;100.00
7058;BME280;3570;43.080;25.628;2023-01-25T00:10:52;-19501.94;;;1.67;100.00
7058;BME280;3570;43.080;25.628;2023-01-25T00:13:36;-19500.91;;;1.63;100.00
7058;BME280;3570;43.080;25.628;2023-01-25T00:16:20;-19507.53;;;1.86;100.00
7058;BME280;3570;43.080;25.628;2023-01-25T00:19:05;-19510.59;;;1.97;100.00
7058;BME280;3570;43.080;25.628;2023-01-25T00:21:50;-19509.88;;;1.94;100.00
7058;BME280;3570;43.080;25.628;2023-01-25T00:24:34;-19501.66;;;1.66;100.00
7058;BME280;3570;43.080;25.628;2023-01-25T00:27:18;-19500.19;;;1.61;100.00
7058;BME280;3570;43.080;25.628;2023-01-25T00:30:02;-19500.47;;;1.62;100.00
7058;BME280;3570;43.080;25.628;2023-01-25T00:32:52;-19502.81;;;1.70;100.00
7058;BME280;3570;43.080;25.628;2023-01-25T00:35:42;-19503.56;;;1.72;100.00
7058;BME280;3570;43.080;25.628;2023-01-25T00:38:30;-19501.94;;;1.67;100.00
7058;BME280;3570;43.080;25.628;2023-01-25T00:41:16;-19495.03;;;1.43;100.00
7058;BME280;3570;43.080;25.628;2023-01-25T00:44:00;-19502.53;;;1.69;100.00
7058;BME280;3570;43.080;25.628;2023-01-25T00:46:44;-19504.28;;;1.75;100.00
7058;BME280;3570;43.080;25.628;2023-01-25T00:49:28;-19504.44;;;1.75;100.00
7058;BME280;3570;43.080;25.628;2023-01-25T00:52:14;-19505.47;;;1.79;100.00
7058;BME280;3570;43.080;25.628;2023-01-25T00:54:58;-19501.34;;;1.65;100.00
7058;BME280;3570;43.080;25.628;2023-01-25T00:57:42;-19504.28;;;1.75;100.00
7058;BME280;3570;43.080;25.628;2023-01-25T01:00:26;-19503.41;;;1.72;100.00
7058;BME280;3570;43.080;25.628;2023-01-25T01:03:10;-19502.38;;;1.68;100.00
7058;BME280;3570;43.080;25.628;2023-01-25T01:05:59;-19501.66;;;1.66;100.00
7058;BME280;3570;43.080;25.628;2023-01-25T01:08:43;-19503.72;;;1.73;100.00
7058;BME280;3570;43.080;25.628;2023-01-25T01:11:28;-19495.91;;;1.46;100.00
7058;BME280;3570;43.080;25.628;2023-01-25T01:14:14;-19501.34;;;1.65;100.00
7058;BME280;3570;43.080;25.628;2023-01-25T01:16:58;-19503.72;;;1.73;100.00
7058;BME280;3570;43.080;25.628;2023-01-25T01:19:42;-19496.50;;;1.48;100.00
7058;BME280;3570;43.080;25.628;2023-01-25T01:22:26;-19503.84;;;1.73;100.00
7058;BME280;3570;43.080;25.628;2023-01-25T01:25:10;-19503.56;;;1.72;100.00
7058;BME280;3570;43.080;25.628;2023-01-25T01:27:56;-19503.25;;;1.71;100.00
7058;BME280;3570;43.080;25.628;2023-01-25T01:30:39;-19496.06;;;1.47;100.00
7058;BME280;3570;43.080;25.628;2023-01-25T01:33:23;-19502.38;;;1.68;100.00
7058;BME280;3570;43.080;25.628;2023-01-25T01:36:08;-19502.09;;;1.67;100.00
7058;BME280;3570;43.080;25.628;2023-01-25T01:38:53;-19498.41;;;1.55;100.00
7058;BME280;3570;43.080;25.628;2023-01-25T01:41:37;-19502.53;;;1.69;100.00
7058;BME280;3570;43.080;25.628;2023-01-25T01:44:46;-19504.72;;;1.76;100.00
7058;BME280;3570;43.080;25.628;2023-01-25T01:47:40;-19505.75;;;1.80;100.00
7058;BME280;3570;43.080;25.628;2023-01-25T01:50:28;-19504.59;;;1.76;100.00
7058;BME280;3570;43.080;25.628;2023-01-25T01:53:12;-19504.88;;;1.77;100.00
7058;BME280;3570;43.080;25.628;2023-01-25T01:55:59;-19502.25;;;1.68;100.00
7058;BME280;3570;43.080;25.628;2023-01-25T01:58:46;-19503.41;;;1.72;100.00
7058;BME280;3570;43.080;25.628;2023-01-25T02:01:32;-19505.75;;;1.80;100.00
7058;BME280;3570;43.080;25.628;2023-01-25T02:04:17;-19509.28;;;1.92;100.00
7058;BME280;3570;43.080;25.628;2023-01-25T02:07:06;-19511.34;;;1.99;100.00
7058;BME280;3570;43.080;25.628;2023-01-25T02:09:54;-19511.94;;;2.01;100.00
7058;BME280;3570;43.080;25.628;2023-01-25T02:12:38;-19507.66;;;1.86;100.00
7058;BME280;3570;43.080;25.628;2023-01-25T02:15:27;-19505.75;;;1.80;100.00
7058;BME280;3570;43.080;25.628;2023-01-25T02:18:13;-19505.75;;;1.80;100.00
7058;BME280;3570;43.080;25.628;2023-01-25T02:20:58;-19505.47;;;1.79;100.00
7058;BME280;3570;43.080;25.628;2023-01-25T02:26:42;-19501.34;;;1.65;100.00
7058;BME280;3570;43.080;25.628;2023-01-25T02:29:28;-19508.25;;;1.88;100.00
7058;BME280;3570;43.080;25.628;2023-01-25T02:32:13;-19504.88;;;1.77;100.00
7058;BME280;3570;43.080;25.628;2023-01-25T02:34:57;-19502.25;;;1.68;100.00
7058;BME280;3570;43.080;25.628;2023-01-25T02:37:40;-19498.41;;;1.55;100.00
7058;BME280;3570;43.080;25.628;2023-01-25T02:40:25;-19495.03;;;1.43;100.00
7058;BME280;3570;43.080;25.628;2023-01-25T02:43:09;-19488.13;;;1.20;100.00
7058;BME280;3570;43.080;25.628;2023-01-25T02:45:59;-19503.84;;;1.73;100.00
7058;BME280;3570;43.080;25.628;2023-01-25T02:48:44;-19504.00;;;1.74;100.00
7058;BME280;3570;43.080;25.628;2023-01-25T02:51:29;-19498.41;;;1.55;100.00
7058;BME280;3570;43.080;25.628;2023-01-25T02:54:16;-19494.59;;;1.42;100.00
7058;BME280;3570;43.080;25.628;2023-01-25T02:57:00;-19502.25;;;1.68;100.00
7058;BME280;3570;43.080;25.628;2023-01-25T02:59:44;-19502.97;;;1.70;100.00
7058;BME280;3570;43.080;25.628;2023-01-25T03:02:28;-19507.53;;;1.86;100.00
7058;BME280;3570;43.080;25.628;2023-01-25T03:05:12;-19507.22;;;1.85;100.00
7058;BME280;3570;43.080;25.628;2023-01-25T03:07:55;-19516.34;;;2.16;100.00
7058;BME280;3570;43.080;25.628;2023-01-25T03:10:40;-19513.84;;;2.08;100.00
7058;BME280;3570;43.080;25.628;2023-01-25T03:13:25;-19509.44;;;1.92;100.00
7058;BME280;3570;43.080;25.628;2023-01-25T03:16:10;-19505.16;;;1.78;100.00
7058;BME280;3570;43.080;25.628;2023-01-25T03:18:55;-19510.75;;;1.97;100.00
7058;BME280;3570;43.080;25.628;2023-01-25T03:21:40;-19513.69;;;2.07;100.00
7058;BME280;3570;43.080;25.628;2023-01-25T03:24:24;-19512.38;;;2.03;100.00
7058;BME280;3570;43.080;25.628;2023-01-25T03:27:08;-19512.97;;;2.05;100.00
7058;BME280;3570;43.080;25.628;2023-01-25T03:29:57;-19512.81;;;2.04;100.00
7058;BME280;3570;43.080;25.628;2023-01-25T03:32:40;-19507.22;;;1.85;100.00
7058;BME280;3570;43.080;25.628;2023-01-25T03:35:24;-19502.25;;;1.68;100.00
7058;BME280;3570;43.080;25.628;2023-01-25T03:38:08;-19509.88;;;1.94;100.00
7058;BME280;3570;43.080;25.628;2023-01-25T03:40:53;-19496.81;;;1.49;100.00
7058;BME280;3570;43.080;25.628;2023-01-25T03:43:37;-19511.94;;;2.01;100.00
7058;BME280;3570;43.080;25.628;2023-01-25T03:46:21;-19513.69;;;2.07;100.00
7058;BME280;3570;43.080;25.628;2023-01-25T03:49:05;-19506.06;;;1.81;100.00
7058;BME280;3570;43.080;25.628;2023-01-25T03:51:49;-19512.50;;;2.03;100.00
7058;BME280;3570;43.080;25.628;2023-01-25T03:54:33;-19510.47;;;1.96;100.00
7058;BME280;3570;43.080;25.628;2023-01-25T03:57:17;-19510.47;;;1.96;100.00
7058;BME280;3570;43.080;25.628;2023-01-25T04:00:02;-19511.50;;;2.00;100.00
7058;BME280;3570;43.080;25.628;2023-01-25T04:02:47;-19501.06;;;1.64;100.00
7058;BME280;3570;43.080;25.628;2023-01-25T04:05:31;-19502.25;;;1.68;100.00
7058;BME280;3570;43.080;25.628;2023-01-25T04:08:14;-19507.97;;;1.87;100.00
7058;BME280;3570;43.080;25.628;2023-01-25T04:11:07;-19507.81;;;1.87;100.00
7058;BME280;3570;43.080;25.628;2023-01-25T04:13:52;-19501.66;;;1.66;100.00
7058;BME280;3570;43.080;25.628;2023-01-25T04:16:36;-19503.41;;;1.72;100.00
7058;BME280;3570;43.080;25.628;2023-01-25T04:19:20;-19496.34;;;1.48;100.00
7058;BME280;3570;43.080;25.628;2023-01-25T04:22:04;-19496.34;;;1.48;100.00
7058;BME280;3570;43.080;25.628;2023-01-25T04:24:48;-19488.44;;;1.21;100.00
7058;BME280;3570;43.080;25.628;2023-01-25T04:27:32;-19498.72;;;1.56;100.00
7058;BME280;3570;43.080;25.628;2023-01-25T04:30:17;-19496.81;;;1.49;100.00
7058;BME280;3570;43.080;25.628;2023-01-25T04:33:03;-19504.16;;;1.74;100.00
7058;BME280;3570;43.080;25.628;2023-01-25T04:35:48;-19483.28;;;1.03;100.00
7058;BME280;3570;43.080;25.628;2023-01-25T04:38:32;-19498.41;;;1.55;100.00
7058;BME280;3570;43.080;25.628;2023-01-25T04:41:16;-19501.06;;;1.64;100.00
7058;BME280;3570;43.080;25.628;2023-01-25T04:44:00;-19503.56;;;1.72;100.00
7058;BME280;3570;43.080;25.628;2023-01-25T04:46:44;-19499.59;;;1.59;100.00
7058;BME280;3570;43.080;25.628;2023-01-25T04:49:27;-19490.03;;;1.26;100.00
7058;BME280;3570;43.080;25.628;2023-01-25T04:52:12;-19494.59;;;1.42;100.00
7058;BME280;3570;43.080;25.628;2023-01-25T04:54:55;-19489.31;;;1.24;100.00
7058;BME280;3570;43.080;25.628;2023-01-25T04:57:39;-19498.56;;;1.55;100.00
7058;BME280;3570;43.080;25.628;2023-01-25T05:00:23;-19489.59;;;1.25;100.00
7058;BME280;3570;43.080;25.628;2023-01-25T05:03:07;-19490.78;;;1.29;100.00
7058;BME280;3570;43.080;25.628;2023-01-25T05:05:51;-19497.84;;;1.53;100.00
7058;BME280;3570;43.080;25.628;2023-01-25T05:08:35;-19497.97;;;1.53;100.00
7058;BME280;3570;43.080;25.628;2023-01-25T05:11:19;-19476.97;;;0.81;100.00
7058;BME280;3570;43.080;25.628;2023-01-25T05:14:03;-19498.13;;;1.54;100.00
7058;BME280;3570;43.080;25.628;2023-01-25T05:16:47;-19496.94;;;1.50;100.00
7058;BME280;3570;43.080;25.628;2023-01-25T05:19:32;-19492.53;;;1.35;100.00
7058;BME280;3570;43.080;25.628;2023-01-25T05:22:18;-19498.41;;;1.55;100.00
7058;BME280;3570;43.080;25.628;2023-01-25T05:25:03;-19500.03;;;1.60;100.00
7058;BME280;3570;43.080;25.628;2023-01-25T05:27:48;-19502.81;;;1.70;100.00
7058;BME280;3570;43.080;25.628;2023-01-25T05:30:32;-19506.34;;;1.82;100.00
7058;BME280;3570;43.080;25.628;2023-01-25T05:33:16;-19501.94;;;1.67;100.00
7058;BME280;3570;43.080;25.628;2023-01-25T05:36:00;-19489.91;;;1.26;100.00
7058;BME280;3570;43.080;25.628;2023-01-25T05:38:44;-19510.75;;;1.97;100.00
7058;BME280;3570;43.080;25.628;2023-01-25T05:41:29;-19495.91;;;1.46;100.00
7058;BME280;3570;43.080;25.628;2023-01-25T05:44:14;-19494.31;;;1.41;100.00
7058;BME280;3570;43.080;25.628;2023-01-25T05:46:58;-19498.13;;;1.54;100.00
7058;BME280;3570;43.080;25.628;2023-01-25T05:49:42;-19502.53;;;1.69;100.00
7058;BME280;3570;43.080;25.628;2023-01-25T05:52:26;-19500.47;;;1.62;100.00
7058;BME280;3570;43.080;25.628;2023-01-25T05:55:09;-19500.47;;;1.62;100.00
7058;BME280;3570;43.080;25.628;2023-01-25T05:57:54;-19500.63;;;1.62;100.00
7058;BME280;3570;43.080;25.628;2023-01-25T06:00:40;-19504.44;;;1.75;100.00
7058;BME280;3570;43.080;25.628;2023-01-25T06:03:23;-19500.47;;;1.62;100.00
7058;BME280;3570;43.080;25.628;2023-01-25T06:06:08;-19506.66;;;1.83;100.00
7058;BME280;3570;43.080;25.628;2023-01-25T06:08:52;-19504.16;;;1.74;100.00
7058;BME280;3570;43.080;25.628;2023-01-25T06:11:36;-19499.28;;;1.58;100.00
7058;BME280;3570;43.080;25.628;2023-01-25T06:14:20;-19492.69;;;1.35;100.00
7058;BME280;3570;43.080;25.628;2023-01-25T06:17:04;-19496.66;;;1.49;100.00
7058;BME280;3570;43.080;25.628;2023-01-25T06:19:48;-19493.56;;;1.38;100.00
7058;BME280;3570;43.080;25.628;2023-01-25T06:22:31;-19494.75;;;1.42;100.00
7058;BME280;3570;43.080;25.628;2023-01-25T06:25:16;-19494.00;;;1.40;100.00
7058;BME280;3570;43.080;25.628;2023-01-25T06:28:00;-19485.50;;;1.11;100.00
7058;BME280;3570;43.080;25.628;2023-01-25T06:30:45;-19490.34;;;1.27;100.00
7058;BME280;3570;43.080;25.628;2023-01-25T06:33:29;-19493.72;;;1.39;100.00
7058;BME280;3570;43.080;25.628;2023-01-25T06:36:15;-19494.00;;;1.40;100.00
7058;BME280;3570;43.080;25.628;2023-01-25T06:38:59;-19494.16;;;1.40;100.00
7058;BME280;3570;43.080;25.628;2023-01-25T06:41:43;-19499.16;;;1.57;100.00
7058;BME280;3570;43.080;25.628;2023-01-25T06:44:27;-19499.16;;;1.57;100.00
7058;BME280;3570;43.080;25.628;2023-01-25T06:47:12;-19493.44;;;1.38;100.00
7058;BME280;3570;43.080;25.628;2023-01-25T06:49:56;-19497.25;;;1.51;100.00
7058;BME280;3570;43.080;25.628;2023-01-25T06:52:40;-19499.88;;;1.60;100.00
7058;BME280;3570;43.080;25.628;2023-01-25T06:55:24;-19499.44;;;1.58;100.00
7058;BME280;3570;43.080;25.628;2023-01-25T06:58:08;-19497.25;;;1.51;100.00
7058;BME280;3570;43.080;25.628;2023-01-25T07:00:52;-19497.69;;;1.52;100.00
7058;BME280;3570;43.080;25.628;2023-01-25T07:03:36;-19492.09;;;1.33;100.00
7058;BME280;3570;43.080;25.628;2023-01-25T07:06:20;-19497.84;;;1.53;100.00
7058;BME280;3570;43.080;25.628;2023-01-25T07:09:07;-19506.50;;;1.82;100.00
7058;BME280;3570;43.080;25.628;2023-01-25T07:11:52;-19504.28;;;1.75;100.00
7058;BME280;3570;43.080;25.628;2023-01-25T07:14:36;-19504.72;;;1.76;100.00
7058;BME280;3570;43.080;25.628;2023-01-25T07:17:20;-19500.47;;;1.62;100.00
7058;BME280;3570;43.080;25.628;2023-01-25T07:20:05;-19495.19;;;1.44;100.00
7058;BME280;3570;43.080;25.628;2023-01-25T07:22:49;-19505.03;;;1.77;100.00
7058;BME280;3570;43.080;25.628;2023-01-25T07:25:33;-19502.53;;;1.69;100.00
7058;BME280;3570;43.080;25.628;2023-01-25T07:28:17;-19482.84;;;1.02;100.00
7058;BME280;3570;43.080;25.628;2023-01-25T07:31:05;-19491.06;;;1.30;100.00
7058;BME280;3570;43.080;25.628;2023-01-25T07:33:51;-19493.72;;;1.39;100.00
7058;BME280;3570;43.080;25.628;2023-01-25T07:36:36;-19499.28;;;1.58;100.00
7058;BME280;3570;43.080;25.628;2023-01-25T07:39:20;-19504.00;;;1.74;100.00
7058;BME280;3570;43.080;25.628;2023-01-25T07:42:04;-19499.44;;;1.58;100.00
7058;BME280;3570;43.080;25.628;2023-01-25T07:44:48;-19499.28;;;1.58;100.00
7058;BME280;3570;43.080;25.628;2023-01-25T07:47:32;-19500.47;;;1.62;100.00
7058;BME280;3570;43.080;25.628;2023-01-25T07:50:16;-19500.75;;;1.63;100.00
7058;BME280;3570;43.080;25.628;2023-01-25T07:53:00;-19499.28;;;1.58;100.00
7058;BME280;3570;43.080;25.628;2023-01-25T07:55:44;-19509.44;;;1.92;100.00
7058;BME280;3570;43.080;25.628;2023-01-25T07:58:28;-19502.53;;;1.69;100.00
7058;BME280;3570;43.080;25.628;2023-01-25T08:01:17;-19504.28;;;1.75;100.00
7058;BME280;3570;43.080;25.628;2023-01-25T08:04:03;-19511.50;;;2.00;100.00
7058;BME280;3570;43.080;25.628;2023-01-25T08:06:49;-19515.47;;;2.13;100.00
7058;BME280;3570;43.080;25.628;2023-01-25T08:09:33;-19520.44;;;2.30;100.00
7058;BME280;3570;43.080;25.628;2023-01-25T08:12:17;-19504.00;;;1.74;100.00
7058;BME280;3570;43.080;25.628;2023-01-25T08:15:01;-19506.34;;;1.82;100.00
7058;BME280;3570;43.080;25.628;2023-01-25T08:17:45;-19508.69;;;1.90;100.00
7058;BME280;3570;43.080;25.628;2023-01-25T08:20:29;-19513.69;;;2.07;100.00
7058;BME280;3570;43.080;25.628;2023-01-25T08:23:13;-19518.09;;;2.22;100.00
7058;BME280;3570;43.080;25.628;2023-01-25T08:26:05;-19510.75;;;1.97;100.00
7058;BME280;3570;43.080;25.628;2023-01-25T08:28:49;-19509.72;;;1.93;100.00
7058;BME280;3570;43.080;25.628;2023-01-25T08:31:39;-19511.94;;;2.01;100.00
7058;BME280;3570;43.080;25.628;2023-01-25T08:34:23;-19508.25;;;1.88;100.00
7058;BME280;3570;43.080;25.628;2023-01-25T08:37:07;-19516.47;;;2.17;100.00
7058;BME280;3570;43.080;25.628;2023-01-25T08:39:51;-19514.13;;;2.09;100.00
7058;BME280;3570;43.080;25.628;2023-01-25T08:42:35;-19514.56;;;2.10;100.00
7058;BME280;3570;43.080;25.628;2023-01-25T08:45:19;-19513.41;;;2.06;100.00
7058;BME280;3570;43.080;25.628;2023-01-25T08:48:03;-19511.63;;;2.00;100.00
7058;BME280;3570;43.080;25.628;2023-01-25T08:50:48;-19510.47;;;1.96;100.00
7058;BME280;3570;43.080;25.628;2023-01-25T08:53:32;-19508.69;;;1.90;100.00
7058;BME280;3570;43.080;25.628;2023-01-25T08:56:16;-19509.00;;;1.91;100.00
7058;BME280;3570;43.080;25.628;2023-01-25T08:59:01;-19509.59;;;1.93;100.00
7058;BME280;3570;43.080;25.628;2023-01-25T09:01:45;-19517.66;;;2.21;100.00
7058;BME280;3570;43.080;25.628;2023-01-25T09:04:29;-19524.13;;;2.43;100.00
7058;BME280;3570;43.080;25.628;2023-01-25T09:07:13;-19526.03;;;2.49;100.00
7058;BME280;3570;43.080;25.628;2023-01-25T09:09:57;-19528.81;;;2.59;100.00
7058;BME280;3570;43.080;25.628;2023-01-25T09:12:42;-19531.03;;;2.66;100.00
7058;BME280;3570;43.080;25.628;2023-01-25T09:15:26;-19526.16;;;2.50;100.00
7058;BME280;3570;43.080;25.628;2023-01-25T09:18:10;-19522.06;;;2.36;100.00
7058;BME280;3570;43.080;25.628;2023-01-25T09:20:54;-19530.59;;;2.65;100.00
7058;BME280;3570;43.080;25.628;2023-01-25T09:23:38;-19528.09;;;2.56;100.00
7058;BME280;3570;43.080;25.628;2023-01-25T09:26:22;-19529.56;;;2.61;100.00
7058;BME280;3570;43.080;25.628;2023-01-25T09:29:07;-19534.97;;;2.80;100.00
7058;BME280;3570;43.080;25.628;2023-01-25T09:31:51;-19536.00;;;2.83;100.00
7058;BME280;3570;43.080;25.628;2023-01-25T09:34:35;-19540.84;;;3.00;100.00
7058;BME280;3570;43.080;25.628;2023-01-25T09:37:19;-19541.28;;;3.02;100.00
7058;BME280;3570;43.080;25.628;2023-01-25T09:40:04;-19532.19;;;2.70;100.00
7058;BME280;3570;43.080;25.628;2023-01-25T09:42:59;-19534.41;;;2.78;100.00
7058;BME280;3570;43.080;25.628;2023-01-25T09:45:44;-19539.97;;;2.97;100.00
7058;BME280;3570;43.080;25.628;2023-01-25T09:48:40;-19541.59;;;3.03;100.00
7058;BME280;3570;43.080;25.628;2023-01-25T09:54:26;-19553.03;;;3.42;100.00
7058;BME280;3570;43.080;25.628;2023-01-25T09:57:20;-19534.97;;;2.80;100.00
7058;BME280;3570;43.080;25.628;2023-01-25T10:00:17;-19535.56;;;2.82;100.00
7058;BME280;3570;43.080;25.628;2023-01-25T10:06:09;-19544.53;;;3.13;100.00
7058;BME280;3570;43.080;25.628;2023-01-25T10:11:42;-19555.09;;;3.49;100.00
7058;BME280;3570;43.080;25.628;2023-01-25T10:14:26;-19554.22;;;3.46;100.00
7058;BME280;3570;43.080;25.628;2023-01-25T10:17:27;-19558.75;;;3.61;100.00
7058;BME280;3570;43.080;25.628;2023-01-25T10:20:33;-19536.59;;;2.85;100.00
7058;BME280;3570;43.080;25.628;2023-01-25T10:23:34;-19558.19;;;3.59;100.00
7058;BME280;3570;43.080;25.628;2023-01-25T10:26:28;-19559.50;;;3.64;100.00
7058;BME280;3570;43.080;25.628;2023-01-25T10:29:22;-19555.38;;;3.50;100.00
7058;BME280;3570;43.080;25.628;2023-01-25T10:32:29;-19569.91;;;4.00;100.00
7058;BME280;3570;43.080;25.628;2023-01-25T10:35:22;-19572.09;;;4.07;100.00
7058;BME280;3570;43.080;25.628;2023-01-25T10:38:17;-19568.44;;;3.95;100.00
7058;BME280;3570;43.080;25.628;2023-01-25T10:41:11;-19567.84;;;3.93;100.00
7058;BME280;3570;43.080;25.628;2023-01-25T10:43:57;-19559.50;;;3.64;100.00
7058;BME280;3570;43.080;25.628;2023-01-25T10:47:05;-19567.72;;;3.92;100.00
7058;BME280;3570;43.080;25.628;2023-01-25T10:49:58;-19571.97;;;4.07;100.00
7058;BME280;3570;43.080;25.628;2023-01-25T10:52:56;-19568.59;;;3.95;100.00
7058;BME280;3570;43.080;25.628;2023-01-25T10:58:49;-19574.16;;;4.14;100.00
7058;BME280;3570;43.080;25.628;2023-01-25T11:01:34;-19573.56;;;4.12;100.00
7058;BME280;3570;43.080;25.628;2023-01-25T11:04:33;-19571.81;;;4.06;100.00
7058;BME280;3570;43.080;25.628;2023-01-25T11:07:27;-19569.19;;;3.97;100.00
7058;BME280;3570;43.080;25.628;2023-01-25T11:18:53;-19574.47;;;4.15;100.00
7058;BME280;3570;43.080;25.628;2023-01-25T11:21:50;-19582.09;;;4.41;100.00
7058;BME280;3570;43.080;25.628;2023-01-25T11:24:35;-19582.66;;;4.43;100.00
7058;BME280;3570;43.080;25.628;2023-01-25T11:27:22;-19581.50;;;4.39;100.00
7058;BME280;3570;43.080;25.628;2023-01-25T11:30:08;-19577.69;;;4.26;100.00
7058;BME280;3570;43.080;25.628;2023-01-25T11:32:53;-19572.25;;;4.08;100.00
7058;BME280;3570;43.080;25.628;2023-01-25T11:54:44;-19545.84;;;3.17;99.62
7058;BME280;3570;43.080;25.628;2023-01-25T11:58:10;-19542.03;;;3.04;100.00
7058;BME280;3570;43.080;25.628;2023-01-25T12:01:11;-19538.66;;;2.93;100.00
7058;BME280;3570;43.080;25.628;2023-01-25T12:22:20;-19551.56;;;3.37;98.22
7058;BME280;3570;43.080;25.628;2023-01-25T12:28:55;-19549.81;;;3.31;98.62
7058;BME280;3570;43.080;25.628;2023-01-25T12:34:30;-19543.94;;;3.11;100.00
7058;BME280;3570;43.080;25.628;2023-01-25T12:37:46;-19543.06;;;3.08;100.00
7058;BME280;3570;43.080;25.628;2023-01-25T12:40:44;-19542.19;;;3.05;100.00
7058;BME280;3570;43.080;25.628;2023-01-25T12:43:44;-19541.72;;;3.03;100.00
7058;BME280;3570;43.080;25.628;2023-01-25T12:46:38;-19536.75;;;2.86;100.00
7058;BME280;3570;43.080;25.628;2023-01-25T12:49:35;-19537.47;;;2.88;100.00
7058;BME280;3570;43.080;25.628;2023-01-25T12:52:31;-19537.47;;;2.88;100.00
7058;BME280;3570;43.080;25.628;2023-01-25T12:55:17;-19530.88;;;2.66;100.00
7058;BME280;3570;43.080;25.628;2023-01-25T13:04:24;-19540.84;;;3.00;100.00
7058;BME280;3570;43.080;25.628;2023-01-25T13:07:39;-19539.97;;;2.97;100.00
7058;BME280;3570;43.080;25.628;2023-01-25T13:10:34;-19512.97;;;2.05;100.00
7058;BME280;3570;43.080;25.628;2023-01-25T13:13:23;-19510.75;;;1.97;100.00
7058;BME280;3570;43.080;25.628;2023-01-25T13:25:26;-19528.81;;;2.59;100.00
7058;BME280;3570;43.080;25.628;2023-01-25T13:28:43;-19532.34;;;2.71;100.00
7058;BME280;3570;43.080;25.628;2023-01-25T13:37:30;-19521.03;;;2.32;100.00
7058;BME280;3570;43.080;25.628;2023-01-25T13:40:36;-19515.47;;;2.13;100.00
7058;BME280;3570;43.080;25.628;2023-01-25T13:43:20;-19518.53;;;2.24;100.00
7058;BME280;3570;43.080;25.628;2023-01-25T13:46:08;-19523.81;;;2.42;100.00
7058;BME280;3570;43.080;25.628;2023-01-25T13:49:00;-19524.84;;;2.45;100.00
7058;BME280;3570;43.080;25.628;2023-01-25T13:51:46;-19524.13;;;2.43;100.00
7058;BME280;3570;43.080;25.628;2023-01-25T13:54:29;-19521.19;;;2.33;100.00
7058;BME280;3570;43.080;25.628;2023-01-25T13:57:27;-19518.69;;;2.24;100.00
7058;BME280;3570;43.080;25.628;2023-01-25T14:00:15;-19511.06;;;1.98;100.00
7058;BME280;3570;43.080;25.628;2023-01-25T14:02:59;-19512.38;;;2.03;100.00
7058;BME280;3570;43.080;25.628;2023-01-25T14:05:49;-19514.00;;;2.08;100.00
7058;BME280;3570;43.080;25.628;2023-01-25T14:08:33;-19501.66;;;1.66;100.00
7058;BME280;3570;43.080;25.628;2023-01-25T14:11:26;-19500.91;;;1.63;100.00
7058;BME280;3570;43.080;25.628;2023-01-25T14:17:21;-19506.94;;;1.84;100.00
7058;BME280;3570;43.080;25.628;2023-01-25T14:20:17;-19509.28;;;1.92;100.00
7058;BME280;3570;43.080;25.628;2023-01-25T14:23:01;-19504.88;;;1.77;100.00
7058;BME280;3570;43.080;25.628;2023-01-25T14:25:46;-19508.56;;;1.89;100.00
7058;BME280;3570;43.080;25.628;2023-01-25T14:28:30;-19503.56;;;1.72;100.00
7058;BME280;3570;43.080;25.628;2023-01-25T14:31:23;-19496.94;;;1.50;100.00
7058;BME280;3570;43.080;25.628;2023-01-25T14:34:16;-19502.69;;;1.69;100.00
7058;BME280;3570;43.080;25.628;2023-01-25T14:39:57;-19497.69;;;1.52;100.00
7058;BME280;3570;43.080;25.628;2023-01-25T14:42:41;-19509.00;;;1.91;100.00
7058;BME280;3570;43.080;25.628;2023-01-25T14:45:25;-19503.56;;;1.72;100.00
7058;BME280;3570;43.080;25.628;2023-01-25T14:48:39;-19508.56;;;1.89;100.00
7058;BME280;3570;43.080;25.628;2023-01-25T14:51:26;-19502.25;;;1.68;100.00
7058;BME280;3570;43.080;25.628;2023-01-25T14:54:18;-19505.75;;;1.80;100.00
7058;BME280;3570;43.080;25.628;2023-01-25T14:57:15;-19500.75;;;1.63;100.00
7058;BME280;3570;43.080;25.628;2023-01-25T15:00:18;-19492.41;;;1.34;100.00
7058;BME280;3570;43.080;25.628;2023-01-25T15:03:04;-19497.69;;;1.52;100.00
7058;BME280;3570;43.080;25.628;2023-01-25T15:05:48;-19496.81;;;1.49;100.00
7058;BME280;3570;43.080;25.628;2023-01-25T15:08:37;-19488.88;;;1.22;100.00
7058;BME280;3570;43.080;25.628;2023-01-25T15:11:30;-19496.06;;;1.47;100.00
7058;BME280;3570;43.080;25.628;2023-01-25T15:14:20;-19492.25;;;1.34;100.00
7058;BME280;3570;43.080;25.628;2023-01-25T15:17:04;-19499.28;;;1.58;100.00
7058;BME280;3570;43.080;25.628;2023-01-25T15:19:51;-19490.34;;;1.27;100.00
7058;BME280;3570;43.080;25.628;2023-01-25T15:22:35;-19493.56;;;1.38;100.00
7058;BME280;3570;43.080;25.628;2023-01-25T15:25:19;-19499.75;;;1.59;100.00
7058;BME280;3570;43.080;25.628;2023-01-25T15:28:04;-19502.53;;;1.69;100.00
7058;BME280;3570;43.080;25.628;2023-01-25T15:30:49;-19491.66;;;1.32;100.00
7058;BME280;3570;43.080;25.628;2023-01-25T15:33:34;-19491.38;;;1.31;100.00
7058;BME280;3570;43.080;25.628;2023-01-25T15:36:18;-19502.25;;;1.68;100.00
7058;BME280;3570;43.080;25.628;2023-01-25T15:39:03;-19500.19;;;1.61;100.00
7058;BME280;3570;43.080;25.628;2023-01-25T15:41:47;-19501.50;;;1.65;100.00
7058;BME280;3570;43.080;25.628;2023-01-25T15:44:31;-19497.25;;;1.51;100.00
7058;BME280;3570;43.080;25.628;2023-01-25T15:47:15;-19496.34;;;1.48;100.00
7058;BME280;3570;43.080;25.628;2023-01-25T15:49:59;-19503.25;;;1.71;100.00
7058;BME280;3570;43.080;25.628;2023-01-25T15:52:44;-19501.94;;;1.67;100.00
7058;BME280;3570;43.080;25.628;2023-01-25T15:55:28;-19503.84;;;1.73;100.00
7058;BME280;3570;43.080;25.628;2023-01-25T15:58:31;-19503.41;;;1.72;100.00
7058;BME280;3570;43.080;25.628;2023-01-25T16:01:17;-19499.75;;;1.59;100.00
7058;BME280;3570;43.080;25.628;2023-01-25T16:04:01;-19491.06;;;1.30;100.00
7058;BME280;3570;43.080;25.628;2023-01-25T16:06:49;-19499.88;;;1.60;100.00
7058;BME280;3570;43.080;25.628;2023-01-25T16:09:33;-19501.34;;;1.65;100.00
7058;BME280;3570;43.080;25.628;2023-01-25T16:12:18;-19498.28;;;1.54;100.00
7058;BME280;3570;43.080;25.628;2023-01-25T16:15:02;-19500.63;;;1.62;100.00
7058;BME280;3570;43.080;25.628;2023-01-25T16:17:46;-19500.03;;;1.60;100.00
7058;BME280;3570;43.080;25.628;2023-01-25T16:20:30;-19499.88;;;1.60;100.00